createdAt,value
2018-05-25T00:00:22.286Z,37.61
2018-05-25T00:01:22.288Z,37.80
2018-05-25T00:02:22.287Z,37.51
2018-05-25T00:03:22.276Z,38.28
2018-05-25T00:04:22.269Z,35.22
2018-05-25T00:05:22.306Z,31.12
2018-05-25T00:06:22.253Z,26.54
2018-05-25T00:07:22.265Z,26.25
2018-05-25T00:08:22.253Z,24.15
2018-05-25T00:09:22.249Z,23.48
2018-05-25T00:10:22.263Z,24.05
2018-05-25T00:11:22.242Z,25.29
2018-05-25T00:12:22.237Z,26.44
2018-05-25T00:13:22.234Z,27.20
2018-05-25T00:14:22.223Z,26.73
2018-05-25T00:15:22.221Z,26.82
2018-05-25T00:16:22.218Z,27.49
2018-05-25T00:17:22.212Z,28.44
2018-05-25T00:18:22.211Z,29.69
2018-05-25T00:19:22.205Z,30.16
2018-05-25T00:20:22.216Z,30.07
2018-05-25T00:21:22.196Z,29.11
2018-05-25T00:22:22.206Z,29.21
2018-05-25T00:23:22.192Z,29.88
2018-05-25T00:24:22.183Z,30.35
2018-05-25T00:25:22.180Z,30.07
2018-05-25T00:26:22.176Z,30.18
2018-05-25T00:27:22.168Z,30.26
2018-05-25T00:28:22.157Z,30.46
2018-05-25T00:29:22.161Z,30.83
2018-05-25T00:30:22.158Z,30.16
2018-05-25T00:31:22.140Z,29.88
2018-05-25T00:32:22.144Z,29.49
2018-05-25T00:33:22.144Z,28.35
2018-05-25T00:34:22.146Z,27.49
2018-05-25T00:35:22.125Z,28.83
2018-05-25T00:36:22.132Z,30.45
2018-05-25T00:37:22.129Z,35.03
2018-05-25T00:38:22.126Z,37.73
2018-05-25T00:39:22.142Z,38.39
2018-05-25T00:40:22.143Z,41.16
2018-05-25T00:41:22.110Z,42.21
2018-05-25T00:42:22.112Z,41.06
2018-05-25T00:43:22.110Z,40.97
2018-05-25T00:44:22.101Z,40.97
2018-05-25T00:45:22.098Z,38.96
2018-05-25T00:46:22.090Z,38.68
2018-05-25T00:47:22.087Z,37.53
2018-05-25T00:48:22.082Z,38.39
2018-05-25T00:49:22.079Z,36.94
2018-05-25T00:50:22.102Z,36.18
2018-05-25T00:51:22.064Z,32.17
2018-05-25T00:52:22.066Z,31.31
2018-05-25T00:53:22.059Z,27.39
2018-05-25T00:54:22.055Z,26.34
2018-05-25T00:55:22.050Z,25.10
2018-05-25T00:56:22.048Z,23.19
2018-05-25T00:57:22.045Z,20.72
2018-05-25T00:58:22.052Z,21.00
2018-05-25T00:59:22.034Z,21.00
2018-05-25T01:00:22.050Z,21.38
2018-05-25T01:01:23.209Z,22.91
2018-05-25T01:02:22.036Z,25.01
2018-05-25T01:03:22.017Z,25.49
2018-05-25T01:04:22.015Z,25.20
2018-05-25T01:05:22.011Z,23.10
2018-05-25T01:06:22.015Z,22.62
2018-05-25T01:07:22.006Z,21.28
2018-05-25T01:08:21.998Z,20.62
2018-05-25T01:09:21.987Z,18.71
2018-05-25T01:10:21.987Z,18.04
2018-05-25T01:11:21.985Z,16.03
2018-05-25T01:12:21.983Z,14.79
2018-05-25T01:13:21.983Z,15.56
2018-05-25T01:14:21.981Z,15.17
2018-05-25T01:15:21.965Z,14.61
2018-05-25T01:16:21.965Z,14.51
2018-05-25T01:17:21.961Z,14.32
2018-05-25T01:18:21.952Z,14.32
2018-05-25T01:19:21.946Z,16.32
2018-05-25T01:20:21.944Z,16.89
2018-05-25T01:21:21.939Z,16.89
2018-05-25T01:22:21.932Z,17.47
2018-05-25T01:23:21.918Z,18.13
2018-05-25T01:24:21.921Z,16.61
2018-05-25T01:25:21.920Z,14.40
2018-05-25T01:26:21.921Z,13.17
2018-05-25T01:27:21.913Z,11.44
2018-05-25T01:28:21.929Z,10.21
2018-05-25T01:29:21.903Z,10.30
2018-05-25T01:30:21.889Z,9.92
2018-05-25T02:03:01.116Z,0.00
2018-05-25T02:04:01.085Z,0.00
2018-05-25T02:05:54.035Z,0.00
2018-05-25T02:06:53.998Z,0.00
2018-05-25T02:08:46.914Z,0.00
2018-05-25T02:09:46.898Z,0.00
2018-05-25T02:11:39.809Z,0.00
2018-05-25T02:12:39.780Z,0.00
2018-05-25T02:13:39.773Z,0.00
2018-05-25T02:14:39.767Z,0.00
2018-05-25T02:15:39.757Z,0.00
2018-05-25T02:16:39.764Z,0.00
2018-05-25T02:17:39.768Z,0.00
2018-05-25T02:18:39.741Z,0.00
2018-05-25T02:19:39.733Z,0.00
2018-05-25T02:20:39.739Z,0.00
2018-05-25T02:21:39.724Z,0.00
2018-05-25T02:22:39.717Z,0.00
2018-05-25T02:23:39.710Z,0.00
2018-05-25T02:24:39.702Z,0.00
2018-05-25T02:25:39.702Z,0.00
2018-05-25T02:26:39.697Z,0.00
2018-05-25T02:27:39.688Z,0.00
2018-05-25T02:28:39.686Z,0.00
2018-05-25T02:29:39.680Z,0.00
2018-05-25T02:30:39.678Z,0.00
2018-05-25T02:31:39.665Z,0.00
2018-05-25T02:32:39.667Z,0.00
2018-05-25T02:33:39.660Z,0.00
2018-05-25T02:34:39.667Z,0.00
2018-05-25T02:35:39.653Z,0.00
2018-05-25T02:36:39.663Z,0.00
2018-05-25T02:37:39.640Z,0.00
2018-05-25T02:38:39.670Z,0.00
2018-05-25T02:39:39.629Z,0.00
2018-05-25T02:40:39.635Z,0.00
2018-05-25T02:41:39.622Z,0.00
2018-05-25T02:42:39.621Z,0.00
2018-05-25T02:43:39.615Z,0.00
2018-05-25T02:44:39.609Z,0.00
2018-05-25T02:45:39.608Z,0.00
2018-05-25T02:46:39.599Z,0.00
2018-05-25T02:47:39.598Z,0.00
2018-05-25T02:48:39.592Z,0.00
2018-05-25T02:49:39.584Z,0.00
2018-05-25T02:50:39.585Z,0.00
2018-05-25T02:51:39.577Z,0.00
2018-05-25T02:52:39.568Z,0.00
2018-05-25T02:53:39.576Z,0.00
2018-05-25T02:54:39.551Z,0.00
2018-05-25T02:55:39.556Z,0.00
2018-05-25T02:56:39.552Z,0.00
2018-05-25T02:57:39.551Z,0.00
2018-05-25T02:58:39.547Z,0.00
2018-05-25T02:59:39.546Z,0.00
2018-05-25T03:00:39.525Z,0.00
2018-05-25T03:01:39.525Z,0.00
2018-05-25T03:02:39.529Z,0.00
2018-05-25T03:03:39.535Z,0.00
2018-05-25T03:04:39.527Z,0.00
2018-05-25T03:05:39.501Z,0.00
2018-05-25T03:06:39.507Z,0.00
2018-05-25T03:07:39.502Z,0.00
2018-05-25T03:08:39.497Z,0.00
2018-05-25T03:09:39.494Z,0.00
2018-05-25T03:10:39.483Z,0.00
2018-05-25T03:11:39.480Z,0.00
2018-05-25T03:12:39.482Z,0.00
2018-05-25T03:13:39.474Z,0.00
2018-05-25T03:14:39.473Z,0.00
2018-05-25T03:15:39.461Z,0.00
2018-05-25T03:16:39.462Z,0.00
2018-05-25T03:17:39.470Z,0.00
2018-05-25T03:18:39.449Z,0.00
2018-05-25T03:19:39.444Z,0.00
2018-05-25T03:20:39.439Z,0.00
2018-05-25T03:21:39.436Z,0.00
2018-05-25T03:22:39.444Z,0.00
2018-05-25T03:23:39.420Z,0.00
2018-05-25T03:24:39.429Z,0.00
2018-05-25T03:25:39.423Z,0.00
2018-05-25T03:26:39.417Z,0.00
2018-05-25T03:27:39.409Z,0.00
2018-05-25T03:28:39.401Z,0.00
2018-05-25T03:29:39.397Z,0.00
2018-05-25T03:30:39.392Z,0.00
2018-05-25T03:31:39.377Z,0.00
2018-05-25T03:32:39.382Z,0.00
2018-05-25T03:33:39.376Z,0.00
2018-05-25T03:34:39.375Z,0.00
2018-05-25T03:35:39.390Z,0.00
2018-05-25T03:36:39.366Z,0.00
2018-05-25T03:37:39.364Z,0.00
2018-05-25T03:38:39.359Z,0.00
2018-05-25T03:39:39.352Z,0.00
2018-05-25T03:40:39.361Z,0.00
2018-05-25T03:41:39.340Z,0.00
2018-05-25T03:42:39.337Z,0.00
2018-05-25T03:43:39.345Z,0.00
2018-05-25T03:44:39.330Z,0.00
2018-05-25T03:45:39.324Z,0.00
2018-05-25T03:46:39.321Z,0.00
2018-05-25T03:47:39.312Z,0.00
2018-05-25T03:48:39.311Z,0.00
2018-05-25T03:49:39.305Z,0.00
2018-05-25T03:50:39.301Z,0.00
2018-05-25T03:51:39.300Z,0.00
2018-05-25T03:52:39.292Z,0.00
2018-05-25T03:53:39.288Z,0.00
2018-05-25T03:54:39.282Z,0.00
2018-05-25T03:55:39.267Z,0.00
2018-05-25T03:56:39.275Z,0.00
2018-05-25T03:57:39.271Z,0.00
2018-05-25T03:58:39.258Z,0.00
2018-05-25T03:59:39.259Z,0.00
2018-05-25T04:00:39.257Z,2.09
2018-05-25T04:01:39.268Z,5.63
2018-05-25T04:02:39.251Z,8.30
2018-05-25T04:03:39.239Z,9.92
2018-05-25T04:04:39.253Z,11.65
2018-05-25T04:05:39.237Z,13.75
2018-05-25T04:06:39.231Z,15.56
2018-05-25T04:07:39.219Z,17.47
2018-05-25T04:08:39.221Z,19.76
2018-05-25T04:09:39.222Z,21.57
2018-05-25T04:10:39.218Z,23.19
2018-05-25T04:11:39.211Z,23.67
2018-05-25T04:12:39.207Z,23.77
2018-05-25T04:13:39.204Z,25.39
2018-05-25T04:14:39.201Z,27.01
2018-05-25T04:15:39.198Z,28.65
2018-05-25T04:16:39.191Z,31.04
2018-05-25T04:17:39.184Z,33.52
2018-05-25T04:18:39.183Z,36.10
2018-05-25T04:19:39.198Z,37.53
2018-05-25T04:20:39.208Z,38.58
2018-05-25T04:21:39.174Z,39.83
2018-05-25T04:22:39.171Z,39.73
2018-05-25T04:23:39.177Z,38.01
2018-05-25T04:24:39.162Z,37.05
2018-05-25T04:25:39.157Z,36.88
2018-05-25T04:26:39.176Z,40.03
2018-05-25T04:27:39.149Z,42.33
2018-05-25T04:28:39.143Z,46.92
2018-05-25T04:29:39.141Z,48.64
2018-05-25T04:30:39.139Z,50.55
2018-05-25T04:31:39.144Z,49.69
2018-05-25T04:32:39.144Z,50.07
2018-05-25T04:33:39.128Z,48.47
2018-05-25T04:34:39.127Z,52.96
2018-05-25T04:35:39.135Z,53.61
2018-05-25T04:36:39.106Z,54.97
2018-05-25T04:37:39.122Z,54.59
2018-05-25T04:38:39.110Z,56.50
2018-05-25T04:39:39.108Z,55.07
2018-05-25T04:40:39.113Z,55.64
2018-05-25T04:41:39.106Z,57.46
2018-05-25T04:42:39.096Z,60.16
2018-05-25T04:43:39.120Z,64.09
2018-05-25T04:44:39.101Z,68.10
2018-05-25T04:45:39.090Z,69.15
2018-05-25T04:46:39.084Z,72.98
2018-05-25T04:47:39.085Z,74.99
2018-05-25T04:48:39.083Z,78.09
2018-05-25T04:49:39.096Z,78.91
2018-05-25T04:50:39.077Z,79.62
2018-05-25T04:51:39.072Z,79.43
2018-05-25T04:52:39.096Z,80.38
2018-05-25T04:53:39.093Z,80.77
2018-05-25T04:54:39.066Z,83.54
2018-05-25T04:55:39.061Z,84.12
2018-05-25T04:56:39.060Z,87.08
2018-05-25T04:57:39.054Z,89.09
2018-05-25T04:58:39.066Z,90.34
2018-05-25T04:59:39.050Z,89.09
2018-05-25T05:00:39.042Z,87.85
2018-05-25T05:01:39.046Z,88.33
2018-05-25T05:02:39.042Z,88.04
2018-05-25T05:03:39.040Z,85.75
2018-05-25T05:04:39.034Z,84.69
2018-05-25T05:05:39.036Z,84.88
2018-05-25T05:06:39.031Z,80.29
2018-05-25T05:07:39.027Z,81.82
2018-05-25T05:08:39.025Z,78.57
2018-05-25T05:09:39.056Z,72.06
2018-05-25T05:10:39.034Z,75.89
2018-05-25T05:11:39.019Z,79.43
2018-05-25T05:12:39.045Z,74.93
2018-05-25T05:13:39.020Z,78.95
2018-05-25T05:14:39.008Z,87.27
2018-05-25T05:15:39.026Z,82.11
2018-05-25T05:16:39.009Z,78.42
2018-05-25T05:17:39.004Z,82.34
2018-05-25T05:18:39.010Z,82.63
2018-05-25T05:19:38.998Z,84.45
2018-05-25T05:20:38.995Z,82.92
2018-05-25T05:21:39.014Z,83.11
2018-05-25T05:22:39.009Z,79.08
2018-05-25T05:23:38.987Z,76.40
2018-05-25T05:24:38.986Z,80.52
2018-05-25T05:25:38.986Z,77.97
2018-05-25T05:26:38.988Z,79.13
2018-05-25T05:27:38.979Z,78.45
2018-05-25T05:28:38.980Z,84.78
2018-05-25T05:29:38.977Z,89.57
2018-05-25T05:30:38.976Z,91.39
2018-05-25T05:31:38.975Z,96.08
2018-05-25T05:32:38.970Z,86.98
2018-05-25T05:33:39.017Z,91.34
2018-05-25T05:34:38.969Z,91.53
2018-05-25T05:35:38.963Z,97.47
2018-05-25T05:36:38.962Z,99.43
2018-05-25T05:37:38.960Z,95.12
2018-05-25T05:38:38.961Z,90.05
2018-05-25T05:39:38.947Z,91.67
2018-05-25T05:40:38.953Z,94.31
2018-05-25T05:41:38.956Z,95.36
2018-05-25T05:42:38.961Z,91.10
2018-05-25T05:43:38.951Z,94.84
2018-05-25T05:44:38.964Z,90.72
2018-05-25T05:45:38.947Z,87.98
2018-05-25T05:46:38.945Z,84.88
2018-05-25T05:47:38.946Z,89.80
2018-05-25T05:48:38.942Z,94.89
2018-05-25T05:49:38.939Z,90.72
2018-05-25T05:50:38.941Z,91.77
2018-05-25T05:51:38.935Z,88.46
2018-05-25T05:52:38.951Z,91.86
2018-05-25T05:53:38.935Z,96.56
2018-05-25T05:54:38.933Z,91.91
2018-05-25T05:55:38.946Z,93.73
2018-05-25T05:56:38.925Z,94.59
2018-05-25T05:57:38.929Z,99.96
2018-05-25T05:58:38.926Z,98.05
2018-05-25T05:59:38.936Z,96.32
2018-05-25T06:00:38.915Z,99.99
2018-05-25T06:01:38.922Z,97.56
2018-05-25T06:02:38.922Z,99.96
2018-05-25T06:03:38.920Z,99.10
2018-05-25T06:04:38.929Z,99.99
2018-05-25T06:05:38.916Z,99.99
2018-05-25T06:06:38.914Z,99.99
2018-05-25T06:07:38.913Z,99.99
2018-05-25T06:08:38.928Z,99.99
2018-05-25T06:09:38.913Z,99.99
2018-05-25T06:10:38.911Z,99.99
2018-05-25T06:11:38.906Z,99.99
2018-05-25T06:12:38.907Z,99.99
2018-05-25T06:13:38.929Z,99.99
2018-05-25T06:14:38.904Z,99.99
2018-05-25T06:15:38.895Z,99.99
2018-05-25T06:16:38.921Z,99.99
2018-05-25T06:17:38.897Z,99.99
2018-05-25T06:18:38.898Z,99.99
2018-05-25T06:19:38.900Z,99.99
2018-05-25T06:20:38.905Z,99.99
2018-05-25T06:21:38.895Z,99.99
2018-05-25T06:22:38.894Z,99.99
2018-05-25T06:23:38.894Z,99.99
2018-05-25T06:24:38.911Z,99.99
2018-05-25T06:25:38.915Z,99.99
2018-05-25T06:26:38.892Z,99.99
2018-05-25T06:27:38.889Z,99.99
2018-05-25T06:28:38.881Z,99.99
2018-05-25T06:29:38.886Z,99.99
2018-05-25T06:30:38.887Z,99.99
2018-05-25T06:31:38.884Z,99.99
2018-05-25T06:32:38.897Z,99.99
2018-05-25T06:33:38.898Z,99.99
2018-05-25T06:34:38.886Z,99.99
2018-05-25T06:35:38.885Z,99.99
2018-05-25T06:36:38.884Z,99.99
2018-05-25T06:37:38.883Z,99.99
2018-05-25T06:38:38.888Z,99.99
2018-05-25T06:39:38.883Z,99.99
2018-05-25T06:40:38.903Z,99.99
2018-05-25T06:41:38.877Z,99.99
2018-05-25T06:42:38.877Z,99.99
2018-05-25T06:43:38.883Z,99.99
2018-05-25T06:44:38.885Z,99.99
2018-05-25T06:45:38.889Z,99.99
2018-05-25T06:46:38.886Z,99.99
2018-05-25T06:47:38.885Z,99.99
2018-05-25T06:48:38.891Z,99.99
2018-05-25T06:49:38.897Z,99.99
2018-05-25T06:50:38.909Z,99.99
2018-05-25T06:51:38.885Z,99.99
2018-05-25T06:52:38.886Z,99.99
2018-05-25T06:53:38.886Z,99.16
2018-05-25T06:54:38.884Z,98.39
2018-05-25T06:55:38.889Z,99.60
2018-05-25T06:56:38.889Z,99.99
2018-05-25T06:57:38.889Z,95.64
2018-05-25T06:58:38.895Z,89.75
2018-05-25T06:59:38.891Z,88.21
2018-05-25T07:00:38.893Z,84.93
2018-05-25T07:01:38.896Z,83.77
2018-05-25T07:02:38.894Z,83.23
2018-05-25T07:03:38.911Z,81.96
2018-05-25T07:04:38.901Z,77.75
2018-05-25T07:05:38.898Z,76.20
2018-05-25T07:06:38.903Z,76.82
2018-05-25T07:07:38.904Z,74.73
2018-05-25T07:08:38.912Z,73.08
2018-05-25T07:09:38.923Z,72.21
2018-05-25T07:10:38.919Z,71.37
2018-05-25T07:11:38.936Z,72.92
2018-05-25T07:12:38.931Z,73.33
2018-05-25T07:13:38.961Z,72.73
2018-05-25T07:14:38.945Z,70.54
2018-05-25T07:15:38.955Z,71.76
2018-05-25T07:16:38.963Z,71.82
2018-05-25T07:17:38.972Z,71.44
2018-05-25T07:18:38.981Z,68.27
2018-05-25T07:19:38.993Z,67.53
2018-05-25T07:20:38.999Z,65.37
2018-05-25T07:21:39.012Z,64.59
2018-05-25T07:22:39.020Z,65.11
2018-05-25T07:23:39.058Z,64.23
2018-05-25T07:24:39.054Z,65.72
2018-05-25T07:25:39.046Z,65.75
2018-05-25T07:26:39.068Z,64.36
2018-05-25T07:27:39.079Z,63.78
2018-05-25T07:28:39.096Z,63.78
2018-05-25T07:29:39.108Z,67.02
2018-05-25T07:30:39.117Z,69.24
2018-05-25T07:31:39.122Z,69.37
2018-05-25T07:32:39.184Z,68.44
2018-05-25T07:33:39.158Z,68.18
2018-05-25T07:34:39.179Z,68.08
2018-05-25T07:35:39.185Z,66.14
2018-05-25T07:36:39.201Z,66.44
2018-05-25T07:37:39.212Z,66.40
2018-05-25T07:38:39.227Z,66.99
2018-05-25T07:39:39.246Z,65.75
2018-05-25T07:40:39.257Z,65.53
2018-05-25T07:41:39.271Z,62.29
2018-05-25T07:42:39.289Z,63.81
2018-05-25T07:43:39.300Z,63.10
2018-05-25T07:44:39.316Z,64.07
2018-05-25T07:45:39.358Z,66.11
2018-05-25T07:46:39.366Z,69.15
2018-05-25T07:47:39.365Z,67.92
2018-05-25T07:48:39.381Z,66.47
2018-05-25T07:49:39.410Z,63.00
2018-05-25T07:50:39.402Z,65.14
2018-05-25T07:51:39.428Z,61.61
2018-05-25T07:52:39.438Z,63.32
2018-05-25T07:53:39.451Z,60.83
2018-05-25T07:54:39.475Z,62.29
2018-05-25T07:55:39.487Z,64.98
2018-05-25T07:56:39.507Z,66.34
2018-05-25T07:57:39.518Z,63.68
2018-05-25T07:58:39.538Z,62.35
2018-05-25T07:59:39.550Z,61.51
2018-05-25T08:00:39.578Z,60.99
2018-05-25T08:01:39.577Z,60.63
2018-05-25T08:02:39.605Z,58.64
2018-05-25T08:03:39.651Z,60.92
2018-05-25T08:04:39.651Z,60.86
2018-05-25T08:05:39.649Z,62.10
2018-05-25T08:06:39.671Z,61.83
2018-05-25T08:07:39.681Z,58.94
2018-05-25T08:08:39.693Z,56.14
2018-05-25T08:09:39.721Z,57.89
2018-05-25T08:10:39.741Z,58.94
2018-05-25T08:11:39.756Z,58.61
2018-05-25T08:12:39.775Z,59.05
2018-05-25T08:13:39.795Z,61.24
2018-05-25T08:14:39.807Z,58.25
2018-05-25T08:15:39.823Z,55.68
2018-05-25T08:16:39.840Z,57.89
2018-05-25T08:17:39.852Z,59.82
2018-05-25T08:18:39.935Z,60.95
2018-05-25T08:19:40.007Z,61.05
2018-05-25T08:20:40.445Z,60.00
2018-05-25T08:21:40.416Z,57.50
2018-05-25T08:22:40.588Z,56.57
2018-05-25T08:23:40.327Z,59.75
2018-05-25T08:24:40.625Z,62.55
2018-05-25T08:25:40.298Z,62.49
2018-05-25T08:26:40.293Z,62.65
2018-05-25T08:27:40.466Z,64.69
2018-05-25T08:28:40.647Z,65.20
2018-05-25T08:29:40.679Z,65.47
2018-05-25T08:30:40.941Z,64.29
2018-05-25T08:31:40.289Z,61.08
2018-05-25T08:32:40.744Z,60.17
2018-05-25T08:33:40.550Z,59.64
2018-05-25T08:34:40.681Z,56.56
2018-05-25T08:35:40.290Z,56.26
2018-05-25T08:36:40.432Z,56.71
2018-05-25T08:37:40.496Z,55.69
2018-05-25T08:38:40.674Z,56.25
2018-05-25T08:39:40.559Z,58.25
2018-05-25T08:40:40.517Z,57.63
2018-05-25T08:41:40.473Z,58.53
2018-05-25T08:42:40.544Z,53.85
2018-05-25T08:43:40.813Z,55.21
2018-05-25T08:44:40.953Z,59.63
2018-05-25T08:45:40.499Z,59.92
2018-05-25T08:46:40.905Z,56.67
2018-05-25T08:47:40.527Z,57.93
2018-05-25T08:48:40.595Z,54.36
2018-05-25T08:49:40.817Z,51.58
2018-05-25T08:50:40.550Z,51.46
2018-05-25T08:51:40.550Z,48.65
2018-05-25T08:52:40.598Z,50.93
2018-05-25T08:53:40.581Z,50.63
2018-05-25T08:54:40.653Z,50.17
2018-05-25T08:55:40.570Z,50.15
2018-05-25T08:56:40.657Z,49.68
2018-05-25T08:57:40.652Z,50.24
2018-05-25T08:58:40.651Z,50.07
2018-05-25T08:59:40.679Z,49.11
2018-05-25T09:00:40.725Z,49.07
2018-05-25T09:01:40.726Z,49.29
2018-05-25T09:02:40.760Z,47.77
2018-05-25T09:03:40.762Z,49.41
2018-05-25T09:04:40.759Z,47.92
2018-05-25T09:05:40.777Z,47.85
2018-05-25T09:06:40.911Z,48.85
2018-05-25T09:07:40.835Z,45.93
2018-05-25T09:08:40.863Z,45.88
2018-05-25T09:09:40.877Z,45.95
2018-05-25T09:10:40.936Z,45.05
2018-05-25T09:11:40.950Z,42.96
2018-05-25T09:12:41.288Z,44.79
2018-05-25T09:13:40.986Z,44.73
2018-05-25T09:14:41.012Z,44.09
2018-05-25T09:15:41.013Z,41.21
2018-05-25T09:16:41.138Z,41.66
2018-05-25T09:17:41.067Z,44.98
2018-05-25T09:18:41.150Z,48.28
2018-05-25T09:19:41.114Z,46.67
2018-05-25T09:20:41.158Z,48.28
2018-05-25T09:21:41.233Z,46.57
2018-05-25T09:22:41.197Z,45.83
2018-05-25T09:23:41.252Z,46.44
2018-05-25T09:24:41.269Z,44.46
2018-05-25T09:25:41.251Z,45.93
2018-05-25T09:26:41.281Z,45.17
2018-05-25T09:27:41.327Z,42.47
2018-05-25T09:28:41.372Z,44.90
2018-05-25T09:29:41.376Z,45.01
2018-05-25T09:30:41.393Z,47.60
2018-05-25T09:31:41.483Z,46.40
2018-05-25T09:32:41.432Z,45.66
2018-05-25T09:33:41.501Z,47.70
2018-05-25T09:34:41.500Z,49.82
2018-05-25T09:35:41.469Z,49.63
2018-05-25T09:36:41.563Z,49.90
2018-05-25T09:37:41.544Z,55.11
2018-05-25T09:38:41.578Z,51.02
2018-05-25T09:39:41.633Z,53.67
2018-05-25T09:40:41.589Z,54.68
2018-05-25T09:41:41.662Z,56.67
2018-05-25T09:42:41.643Z,58.36
2018-05-25T09:43:41.701Z,60.62
2018-05-25T09:44:41.676Z,63.69
2018-05-25T09:45:41.684Z,63.18
2018-05-25T09:46:41.757Z,64.04
2018-05-25T09:47:41.718Z,64.07
2018-05-25T09:48:41.762Z,56.18
2018-05-25T09:49:41.757Z,53.52
2018-05-25T09:50:41.741Z,56.21
2018-05-25T09:51:41.779Z,55.02
2018-05-25T09:52:41.779Z,55.21
2018-05-25T09:53:41.886Z,55.93
2018-05-25T09:54:41.833Z,56.94
2018-05-25T09:55:41.818Z,56.85
2018-05-25T09:56:41.900Z,60.88
2018-05-25T09:57:41.847Z,61.56
2018-05-25T09:58:41.917Z,62.43
2018-05-25T09:59:41.887Z,61.88
2018-05-25T10:00:41.896Z,60.82
2018-05-25T10:01:41.904Z,61.49
2018-05-25T10:02:41.918Z,61.30
2018-05-25T10:03:41.949Z,60.66
2018-05-25T10:04:41.930Z,61.72
2018-05-25T10:05:41.921Z,60.62
2018-05-25T10:06:42.031Z,60.43
2018-05-25T10:07:41.989Z,62.66
2018-05-25T10:08:41.980Z,60.91
2018-05-25T10:09:41.966Z,58.31
2018-05-25T10:10:42.080Z,58.41
2018-05-25T10:11:42.077Z,56.07
2018-05-25T10:12:42.007Z,51.65
2018-05-25T10:13:42.041Z,55.10
2018-05-25T10:14:42.091Z,54.50
2018-05-25T10:15:42.050Z,57.17
2018-05-25T10:16:42.083Z,57.36
2018-05-25T10:17:42.164Z,58.52
2018-05-25T10:18:42.212Z,56.97
2018-05-25T10:19:42.162Z,56.23
2018-05-25T10:20:42.258Z,56.90
2018-05-25T10:21:42.167Z,57.45
2018-05-25T10:22:42.175Z,56.59
2018-05-25T10:23:42.267Z,56.29
2018-05-25T10:24:42.114Z,59.20
2018-05-25T10:25:42.126Z,56.68
2018-05-25T10:26:42.170Z,57.98
2018-05-25T10:27:42.164Z,60.17
2018-05-25T10:28:42.220Z,61.05
2018-05-25T10:29:42.183Z,60.57
2018-05-25T10:30:42.260Z,62.76
2018-05-25T10:31:42.180Z,63.73
2018-05-25T10:32:42.219Z,61.98
2018-05-25T10:33:42.264Z,63.46
2018-05-25T10:34:42.314Z,61.89
2018-05-25T10:35:42.197Z,62.50
2018-05-25T10:36:42.248Z,65.95
2018-05-25T10:37:42.219Z,63.14
2018-05-25T10:38:42.422Z,62.88
2018-05-25T10:39:42.251Z,63.53
2018-05-25T10:40:42.247Z,62.98
2018-05-25T10:41:42.311Z,64.14
2018-05-25T10:42:42.285Z,61.82
2018-05-25T10:43:42.369Z,62.79
2018-05-25T10:44:42.283Z,63.76
2018-05-25T10:45:42.282Z,59.98
2018-05-25T10:46:42.340Z,60.53
2018-05-25T10:47:42.325Z,61.98
2018-05-25T10:48:42.368Z,60.69
2018-05-25T10:49:42.337Z,63.24
2018-05-25T10:50:42.383Z,55.50
2018-05-25T10:51:42.430Z,54.64
2018-05-25T10:52:42.339Z,55.51
2018-05-25T10:53:42.389Z,51.07
2018-05-25T10:54:42.388Z,50.12
2018-05-25T10:55:42.353Z,48.24
2018-05-25T10:56:42.381Z,47.53
2018-05-25T10:57:42.384Z,48.32
2018-05-25T10:58:42.450Z,48.58
2018-05-25T10:59:42.393Z,53.07
2018-05-25T11:00:42.504Z,49.51
2018-05-25T11:01:42.480Z,50.16
2018-05-25T11:02:42.533Z,48.19
2018-05-25T11:03:42.533Z,49.37
2018-05-25T11:04:42.476Z,50.73
2018-05-25T11:05:42.484Z,47.38
2018-05-25T11:06:42.583Z,46.68
2018-05-25T11:07:42.522Z,48.16
2018-05-25T11:08:42.542Z,46.11
2018-05-25T11:09:42.576Z,48.24
2018-05-25T11:10:42.598Z,48.94
2018-05-25T11:11:42.642Z,45.87
2018-05-25T11:12:42.673Z,46.31
2018-05-25T11:13:42.619Z,42.15
2018-05-25T11:14:42.687Z,44.34
2018-05-25T11:15:42.657Z,43.41
2018-05-25T11:16:42.677Z,42.19
2018-05-25T11:17:42.702Z,41.97
2018-05-25T11:18:42.755Z,42.90
2018-05-25T11:19:42.743Z,41.47
2018-05-25T11:20:42.759Z,45.07
2018-05-25T11:21:42.821Z,44.46
2018-05-25T11:22:42.806Z,43.63
2018-05-25T11:23:42.815Z,44.13
2018-05-25T11:24:42.866Z,44.37
2018-05-25T11:25:42.854Z,44.49
2018-05-25T11:26:42.902Z,44.83
2018-05-25T11:27:42.897Z,44.46
2018-05-25T11:28:42.960Z,43.94
2018-05-25T11:29:43.041Z,43.96
2018-05-25T11:30:42.968Z,42.94
2018-05-25T11:31:42.998Z,42.91
2018-05-25T11:32:43.035Z,42.95
2018-05-25T11:33:43.060Z,45.10
2018-05-25T11:34:43.121Z,45.67
2018-05-25T11:35:43.070Z,45.59
2018-05-25T11:36:43.143Z,44.10
2018-05-25T11:37:43.187Z,43.91
2018-05-25T11:38:43.127Z,43.79
2018-05-25T11:39:43.253Z,45.97
2018-05-25T11:40:43.229Z,42.88
2018-05-25T11:41:43.184Z,44.37
2018-05-25T11:42:43.223Z,42.43
2018-05-25T11:43:43.307Z,41.72
2018-05-25T11:44:43.301Z,42.11
2018-05-25T11:45:43.276Z,41.45
2018-05-25T11:46:43.338Z,42.93
2018-05-25T11:47:43.379Z,45.47
2018-05-25T11:48:43.418Z,43.66
2018-05-25T11:49:43.403Z,41.62
2018-05-25T11:50:43.395Z,44.04
2018-05-25T11:51:43.457Z,45.87
2018-05-25T11:52:43.530Z,45.75
2018-05-25T11:53:43.604Z,43.26
2018-05-25T11:54:43.591Z,44.37
2018-05-25T11:55:43.486Z,48.14
2018-05-25T11:56:43.548Z,46.11
2018-05-25T11:57:43.545Z,48.83
2018-05-25T11:58:43.560Z,49.49
2018-05-25T11:59:43.581Z,47.64
2018-05-25T12:00:43.625Z,49.39
2018-05-25T12:01:43.623Z,50.24
2018-05-25T12:02:43.656Z,49.63
2018-05-25T12:03:43.696Z,48.44
2018-05-25T12:04:43.670Z,46.83
2018-05-25T12:05:43.696Z,46.22
2018-05-25T12:06:43.901Z,45.19
2018-05-25T12:07:43.747Z,44.59
2018-05-25T12:08:43.767Z,45.98
2018-05-25T12:09:43.755Z,48.61
2018-05-25T12:10:43.796Z,49.39
2018-05-25T12:11:43.857Z,46.69
2018-05-25T12:12:43.830Z,46.93
2018-05-25T12:13:43.849Z,47.83
2018-05-25T12:14:43.881Z,46.76
2018-05-25T12:15:43.853Z,47.98
2018-05-25T12:16:43.913Z,45.74
2018-05-25T12:17:43.947Z,45.62
2018-05-25T12:18:43.955Z,47.53
2018-05-25T12:19:43.956Z,47.12
2018-05-25T12:20:43.939Z,46.88
2018-05-25T12:21:44.013Z,46.09
2018-05-25T12:22:44.072Z,43.39
2018-05-25T12:23:44.041Z,42.73
2018-05-25T12:24:44.093Z,43.44
2018-05-25T12:25:44.030Z,45.74
2018-05-25T12:26:44.144Z,47.30
2018-05-25T12:27:44.104Z,48.54
2018-05-25T12:28:44.127Z,49.49
2018-05-25T12:29:44.096Z,50.77
2018-05-25T12:30:44.159Z,51.75
2018-05-25T12:31:44.192Z,51.43
2018-05-25T12:32:44.188Z,51.50
2018-05-25T12:33:44.203Z,51.79
2018-05-25T12:34:44.268Z,50.43
2018-05-25T12:35:44.191Z,51.23
2018-05-25T12:36:44.260Z,50.62
2018-05-25T12:37:44.219Z,52.98
2018-05-25T12:38:44.273Z,51.21
2018-05-25T12:39:44.257Z,52.66
2018-05-25T12:40:44.264Z,53.61
2018-05-25T12:41:44.439Z,50.50
2018-05-25T12:42:44.357Z,54.67
2018-05-25T12:43:44.343Z,53.63
2018-05-25T12:44:44.341Z,53.41
2018-05-25T12:45:44.317Z,51.86
2018-05-25T12:46:44.379Z,52.06
2018-05-25T12:47:44.405Z,52.01
2018-05-25T12:48:44.409Z,53.66
2018-05-25T12:49:44.442Z,51.75
2018-05-25T12:50:44.374Z,50.29
2018-05-25T12:51:44.461Z,51.45
2018-05-25T12:52:44.396Z,49.80
2018-05-25T12:53:44.499Z,49.71
2018-05-25T12:54:44.397Z,49.71
2018-05-25T12:55:44.391Z,50.36
2018-05-25T12:56:44.522Z,49.39
2018-05-25T12:57:44.477Z,51.43
2018-05-25T12:58:44.479Z,49.49
2018-05-25T12:59:44.485Z,51.53
2018-05-25T13:00:44.468Z,48.00
2018-05-25T13:01:44.450Z,48.57
2018-05-25T13:02:44.483Z,52.54
2018-05-25T13:03:44.500Z,50.57
2018-05-25T13:04:44.497Z,51.25
2018-05-25T13:05:44.456Z,50.57
2018-05-25T13:06:44.571Z,50.12
2018-05-25T13:07:44.506Z,49.82
2018-05-25T13:08:44.476Z,49.66
2018-05-25T13:09:44.494Z,51.59
2018-05-25T13:10:44.507Z,52.01
2018-05-25T13:11:44.616Z,50.36
2018-05-25T13:12:44.583Z,49.39
2018-05-25T13:13:44.528Z,49.68
2018-05-25T13:14:44.611Z,51.16
2018-05-25T13:15:44.513Z,47.35
2018-05-25T13:16:44.556Z,48.39
2018-05-25T13:17:44.585Z,49.85
2018-05-25T13:18:44.602Z,49.95
2018-05-25T13:19:44.559Z,50.56
2018-05-25T13:20:44.601Z,50.26
2018-05-25T13:21:44.606Z,49.95
2018-05-25T13:22:44.614Z,50.82
2018-05-25T13:23:44.623Z,53.31
2018-05-25T13:24:44.580Z,52.44
2018-05-25T13:25:44.557Z,51.31
2018-05-25T13:26:44.675Z,49.44
2018-05-25T13:27:44.595Z,49.34
2018-05-25T13:28:44.601Z,48.08
2018-05-25T13:29:44.672Z,49.61
2018-05-25T13:30:44.623Z,51.45